sensor_id;sensor_type;location;lat;lon;timestamp;P1;durP1;ratioP1;P2;durP2;ratioP2
55069;SDS011;40967;52.070;8.596;2022-08-24T00:00:59;0.47;;;0.30;;
55069;SDS011;40967;52.070;8.596;2022-08-24T00:03:25;0.20;;;0.10;;
55069;SDS011;40967;52.070;8.596;2022-08-24T00:05:50;0.20;;;0.20;;
55069;SDS011;40967;52.070;8.596;2022-08-24T00:08:17;0.28;;;0.20;;
55069;SDS011;40967;52.070;8.596;2022-08-24T00:10:43;0.40;;;0.30;;
55069;SDS011;40967;52.070;8.596;2022-08-24T00:13:08;0.10;;;0.10;;
55069;SDS011;40967;52.070;8.596;2022-08-24T00:15:34;0.30;;;0.10;;
55069;SDS011;40967;52.070;8.596;2022-08-24T00:17:59;0.30;;;0.20;;
55069;SDS011;40967;52.070;8.596;2022-08-24T00:20:25;0.30;;;0.20;;
55069;SDS011;40967;52.070;8.596;2022-08-24T00:22:51;0.10;;;0.10;;
55069;SDS011;40967;52.070;8.596;2022-08-24T00:25:17;0.10;;;0.10;;
55069;SDS011;40967;52.070;8.596;2022-08-24T00:27:44;0.20;;;0.20;;
55069;SDS011;40967;52.070;8.596;2022-08-24T00:30:12;0.10;;;0.10;;
55069;SDS011;40967;52.070;8.596;2022-08-24T00:32:40;0.20;;;0.10;;
55069;SDS011;40967;52.070;8.596;2022-08-24T00:35:07;0.10;;;0.10;;
55069;SDS011;40967;52.070;8.596;2022-08-24T00:37:33;0.10;;;0.10;;
55069;SDS011;40967;52.070;8.596;2022-08-24T00:40:00;0.30;;;0.10;;
55069;SDS011;40967;52.070;8.596;2022-08-24T00:42:26;0.10;;;0.10;;
55069;SDS011;40967;52.070;8.596;2022-08-24T00:44:51;0.20;;;0.10;;
55069;SDS011;40967;52.070;8.596;2022-08-24T00:47:23;0.10;;;0.10;;
55069;SDS011;40967;52.070;8.596;2022-08-24T00:49:54;0.13;;;0.13;;
55069;SDS011;40967;52.070;8.596;2022-08-24T00:52:23;0.10;;;0.10;;
55069;SDS011;40967;52.070;8.596;2022-08-24T00:54:55;0.10;;;0.10;;
55069;SDS011;40967;52.070;8.596;2022-08-24T00:57:26;0.30;;;0.17;;
55069;SDS011;40967;52.070;8.596;2022-08-24T00:59:59;0.30;;;0.20;;
55069;SDS011;40967;52.070;8.596;2022-08-24T01:02:30;0.20;;;0.15;;
55069;SDS011;40967;52.070;8.596;2022-08-24T01:05:00;0.10;;;0.10;;
55069;SDS011;40967;52.070;8.596;2022-08-24T01:07:28;0.20;;;0.20;;
55069;SDS011;40967;52.070;8.596;2022-08-24T01:09:57;0.10;;;0.10;;
55069;SDS011;40967;52.070;8.596;2022-08-24T01:12:26;0.10;;;0.10;;
55069;SDS011;40967;52.070;8.596;2022-08-24T01:14:53;0.20;;;0.15;;
55069;SDS011;40967;52.070;8.596;2022-08-24T01:17:21;0.20;;;0.20;;
55069;SDS011;40967;52.070;8.596;2022-08-24T01:20:06;0.15;;;0.15;;
55069;SDS011;40967;52.070;8.596;2022-08-24T01:22:55;0.30;;;0.10;;
55069;SDS011;40967;52.070;8.596;2022-08-24T01:25:36;0.10;;;0.10;;
55069;SDS011;40967;52.070;8.596;2022-08-24T01:28:04;0.40;;;0.20;;
55069;SDS011;40967;52.070;8.596;2022-08-24T01:30:32;0.20;;;0.20;;
55069;SDS011;40967;52.070;8.596;2022-08-24T01:33:00;0.20;;;0.20;;
55069;SDS011;40967;52.070;8.596;2022-08-24T01:35:28;0.30;;;0.20;;
55069;SDS011;40967;52.070;8.596;2022-08-24T01:37:55;0.20;;;0.20;;
55069;SDS011;40967;52.070;8.596;2022-08-24T01:40:25;0.20;;;0.20;;
55069;SDS011;40967;52.070;8.596;2022-08-24T01:42:57;0.30;;;0.20;;
55069;SDS011;40967;52.070;8.596;2022-08-24T01:45:22;0.30;;;0.20;;
55069;SDS011;40967;52.070;8.596;2022-08-24T01:47:48;0.20;;;0.20;;
55069;SDS011;40967;52.070;8.596;2022-08-24T01:50:13;0.30;;;0.30;;
55069;SDS011;40967;52.070;8.596;2022-08-24T01:52:40;0.30;;;0.20;;
55069;SDS011;40967;52.070;8.596;2022-08-24T01:55:08;0.25;;;0.20;;
55069;SDS011;40967;52.070;8.596;2022-08-24T01:57:35;0.10;;;0.10;;
55069;SDS011;40967;52.070;8.596;2022-08-24T02:00:03;0.40;;;0.20;;
55069;SDS011;40967;52.070;8.596;2022-08-24T02:02:31;0.20;;;0.20;;
55069;SDS011;40967;52.070;8.596;2022-08-24T02:04:57;0.10;;;0.10;;
55069;SDS011;40967;52.070;8.596;2022-08-24T02:07:23;0.30;;;0.20;;
55069;SDS011;40967;52.070;8.596;2022-08-24T02:09:49;0.10;;;0.10;;
55069;SDS011;40967;52.070;8.596;2022-08-24T02:12:14;0.20;;;0.20;;
55069;SDS011;40967;52.070;8.596;2022-08-24T02:14:40;0.20;;;0.10;;
55069;SDS011;40967;52.070;8.596;2022-08-24T02:17:07;0.10;;;0.10;;
55069;SDS011;40967;52.070;8.596;2022-08-24T02:19:32;0.20;;;0.20;;
55069;SDS011;40967;52.070;8.596;2022-08-24T02:21:58;0.20;;;0.20;;
55069;SDS011;40967;52.070;8.596;2022-08-24T02:24:24;0.40;;;0.20;;
55069;SDS011;40967;52.070;8.596;2022-08-24T02:26:51;0.40;;;0.30;;
55069;SDS011;40967;52.070;8.596;2022-08-24T02:29:16;0.20;;;0.20;;
55069;SDS011;40967;52.070;8.596;2022-08-24T02:31:41;0.55;;;0.30;;
55069;SDS011;40967;52.070;8.596;2022-08-24T02:34:07;0.47;;;0.28;;
55069;SDS011;40967;52.070;8.596;2022-08-24T02:36:33;0.30;;;0.17;;
55069;SDS011;40967;52.070;8.596;2022-08-24T02:38:58;0.20;;;0.20;;
55069;SDS011;40967;52.070;8.596;2022-08-24T02:41:24;0.20;;;0.20;;
55069;SDS011;40967;52.070;8.596;2022-08-24T02:43:50;0.40;;;0.20;;
55069;SDS011;40967;52.070;8.596;2022-08-24T02:46:17;0.20;;;0.15;;
55069;SDS011;40967;52.070;8.596;2022-08-24T02:48:43;0.20;;;0.20;;
55069;SDS011;40967;52.070;8.596;2022-08-24T02:51:16;0.30;;;0.10;;
55069;SDS011;40967;52.070;8.596;2022-08-24T02:53:42;0.30;;;0.20;;
55069;SDS011;40967;52.070;8.596;2022-08-24T02:56:08;0.43;;;0.30;;
55069;SDS011;40967;52.070;8.596;2022-08-24T02:58:33;0.43;;;0.32;;
55069;SDS011;40967;52.070;8.596;2022-08-24T03:00:58;0.23;;;0.20;;
55069;SDS011;40967;52.070;8.596;2022-08-24T03:03:24;0.40;;;0.30;;
55069;SDS011;40967;52.070;8.596;2022-08-24T03:05:49;0.60;;;0.30;;
55069;SDS011;40967;52.070;8.596;2022-08-24T03:08:15;0.30;;;0.20;;
55069;SDS011;40967;52.070;8.596;2022-08-24T03:10:40;0.20;;;0.20;;
55069;SDS011;40967;52.070;8.596;2022-08-24T03:13:06;0.30;;;0.23;;
55069;SDS011;40967;52.070;8.596;2022-08-24T03:15:31;0.10;;;0.10;;
55069;SDS011;40967;52.070;8.596;2022-08-24T03:17:57;0.27;;;0.20;;
55069;SDS011;40967;52.070;8.596;2022-08-24T03:20:22;0.27;;;0.23;;
55069;SDS011;40967;52.070;8.596;2022-08-24T03:22:48;0.35;;;0.30;;
55069;SDS011;40967;52.070;8.596;2022-08-24T03:25:15;0.32;;;0.30;;
55069;SDS011;40967;52.070;8.596;2022-08-24T03:27:42;0.43;;;0.30;;
55069;SDS011;40967;52.070;8.596;2022-08-24T03:30:08;0.40;;;0.27;;
55069;SDS011;40967;52.070;8.596;2022-08-24T03:32:37;0.30;;;0.30;;
55069;SDS011;40967;52.070;8.596;2022-08-24T03:35:02;0.27;;;0.27;;
55069;SDS011;40967;52.070;8.596;2022-08-24T03:37:28;0.38;;;0.20;;
55069;SDS011;40967;52.070;8.596;2022-08-24T03:39:53;0.20;;;0.20;;
55069;SDS011;40967;52.070;8.596;2022-08-24T03:42:19;0.20;;;0.20;;
55069;SDS011;40967;52.070;8.596;2022-08-24T03:44:44;0.30;;;0.20;;
55069;SDS011;40967;52.070;8.596;2022-08-24T03:47:10;0.20;;;0.20;;
55069;SDS011;40967;52.070;8.596;2022-08-24T03:49:36;0.50;;;0.30;;
55069;SDS011;40967;52.070;8.596;2022-08-24T03:52:03;0.20;;;0.20;;
55069;SDS011;40967;52.070;8.596;2022-08-24T03:54:29;0.40;;;0.20;;
55069;SDS011;40967;52.070;8.596;2022-08-24T03:56:55;0.20;;;0.20;;
55069;SDS011;40967;52.070;8.596;2022-08-24T03:59:20;0.30;;;0.23;;
55069;SDS011;40967;52.070;8.596;2022-08-24T04:01:46;0.30;;;0.30;;
55069;SDS011;40967;52.070;8.596;2022-08-24T04:04:11;0.20;;;0.20;;
55069;SDS011;40967;52.070;8.596;2022-08-24T04:06:37;0.27;;;0.20;;
55069;SDS011;40967;52.070;8.596;2022-08-24T04:09:08;0.20;;;0.10;;
55069;SDS011;40967;52.070;8.596;2022-08-24T04:11:34;0.10;;;0.10;;
55069;SDS011;40967;52.070;8.596;2022-08-24T04:13:59;0.38;;;0.25;;
55069;SDS011;40967;52.070;8.596;2022-08-24T04:16:25;0.10;;;0.10;;
55069;SDS011;40967;52.070;8.596;2022-08-24T04:18:52;0.28;;;0.20;;
55069;SDS011;40967;52.070;8.596;2022-08-24T04:21:21;0.32;;;0.30;;
55069;SDS011;40967;52.070;8.596;2022-08-24T04:23:50;0.38;;;0.20;;
55069;SDS011;40967;52.070;8.596;2022-08-24T04:26:16;0.20;;;0.20;;
55069;SDS011;40967;52.070;8.596;2022-08-24T04:28:43;0.32;;;0.20;;
55069;SDS011;40967;52.070;8.596;2022-08-24T04:31:08;0.20;;;0.20;;
55069;SDS011;40967;52.070;8.596;2022-08-24T04:33:34;0.30;;;0.20;;
55069;SDS011;40967;52.070;8.596;2022-08-24T04:36:00;0.20;;;0.20;;
55069;SDS011;40967;52.070;8.596;2022-08-24T04:38:26;0.13;;;0.13;;
55069;SDS011;40967;52.070;8.596;2022-08-24T04:40:52;0.20;;;0.20;;
55069;SDS011;40967;52.070;8.596;2022-08-24T04:43:17;0.10;;;0.10;;
55069;SDS011;40967;52.070;8.596;2022-08-24T04:45:44;0.30;;;0.20;;
55069;SDS011;40967;52.070;8.596;2022-08-24T04:48:11;0.10;;;0.10;;
55069;SDS011;40967;52.070;8.596;2022-08-24T04:50:38;0.20;;;0.20;;
55069;SDS011;40967;52.070;8.596;2022-08-24T04:53:05;0.30;;;0.20;;
55069;SDS011;40967;52.070;8.596;2022-08-24T04:55:32;0.20;;;0.20;;
55069;SDS011;40967;52.070;8.596;2022-08-24T04:57:58;0.20;;;0.20;;
55069;SDS011;40967;52.070;8.596;2022-08-24T05:00:23;0.40;;;0.20;;
55069;SDS011;40967;52.070;8.596;2022-08-24T05:02:49;0.20;;;0.20;;
55069;SDS011;40967;52.070;8.596;2022-08-24T05:05:14;0.10;;;0.10;;
55069;SDS011;40967;52.070;8.596;2022-08-24T05:07:40;0.20;;;0.20;;
55069;SDS011;40967;52.070;8.596;2022-08-24T05:10:06;0.28;;;0.20;;
55069;SDS011;40967;52.070;8.596;2022-08-24T05:12:33;0.50;;;0.30;;
55069;SDS011;40967;52.070;8.596;2022-08-24T05:14:58;0.30;;;0.20;;
55069;SDS011;40967;52.070;8.596;2022-08-24T05:17:24;0.20;;;0.20;;
55069;SDS011;40967;52.070;8.596;2022-08-24T05:19:51;0.20;;;0.20;;
55069;SDS011;40967;52.070;8.596;2022-08-24T05:22:16;0.20;;;0.20;;
55069;SDS011;40967;52.070;8.596;2022-08-24T05:24:42;0.30;;;0.20;;
55069;SDS011;40967;52.070;8.596;2022-08-24T05:27:07;0.23;;;0.20;;
55069;SDS011;40967;52.070;8.596;2022-08-24T05:29:33;0.20;;;0.20;;
55069;SDS011;40967;52.070;8.596;2022-08-24T05:31:59;0.37;;;0.20;;
55069;SDS011;40967;52.070;8.596;2022-08-24T05:34:24;0.22;;;0.20;;
55069;SDS011;40967;52.070;8.596;2022-08-24T05:36:50;0.27;;;0.20;;
55069;SDS011;40967;52.070;8.596;2022-08-24T05:39:16;0.40;;;0.30;;
55069;SDS011;40967;52.070;8.596;2022-08-24T05:41:43;0.23;;;0.20;;
55069;SDS011;40967;52.070;8.596;2022-08-24T05:44:10;0.20;;;0.20;;
55069;SDS011;40967;52.070;8.596;2022-08-24T05:46:37;0.25;;;0.25;;
55069;SDS011;40967;52.070;8.596;2022-08-24T05:49:03;0.20;;;0.10;;
55069;SDS011;40967;52.070;8.596;2022-08-24T05:51:29;0.20;;;0.20;;
55069;SDS011;40967;52.070;8.596;2022-08-24T05:53:55;0.57;;;0.30;;
55069;SDS011;40967;52.070;8.596;2022-08-24T05:56:21;0.30;;;0.20;;
55069;SDS011;40967;52.070;8.596;2022-08-24T05:58:47;0.50;;;0.30;;
55069;SDS011;40967;52.070;8.596;2022-08-24T06:01:17;1.47;;;0.50;;
55069;SDS011;40967;52.070;8.596;2022-08-24T06:03:46;0.40;;;0.35;;
55069;SDS011;40967;52.070;8.596;2022-08-24T06:06:12;0.77;;;0.40;;
55069;SDS011;40967;52.070;8.596;2022-08-24T06:08:40;0.43;;;0.33;;
55069;SDS011;40967;52.070;8.596;2022-08-24T06:11:09;0.80;;;0.40;;
55069;SDS011;40967;52.070;8.596;2022-08-24T06:13:35;0.80;;;0.32;;
55069;SDS011;40967;52.070;8.596;2022-08-24T06:16:04;0.30;;;0.30;;
55069;SDS011;40967;52.070;8.596;2022-08-24T06:18:37;0.77;;;0.40;;
55069;SDS011;40967;52.070;8.596;2022-08-24T06:21:07;1.00;;;0.50;;
55069;SDS011;40967;52.070;8.596;2022-08-24T06:23:34;0.40;;;0.30;;
55069;SDS011;40967;52.070;8.596;2022-08-24T06:26:00;0.40;;;0.30;;
55069;SDS011;40967;52.070;8.596;2022-08-24T06:28:45;1.23;;;0.50;;
55069;SDS011;40967;52.070;8.596;2022-08-24T06:31:11;0.50;;;0.40;;
55069;SDS011;40967;52.070;8.596;2022-08-24T06:33:36;1.00;;;0.57;;
55069;SDS011;40967;52.070;8.596;2022-08-24T06:36:02;0.60;;;0.50;;
55069;SDS011;40967;52.070;8.596;2022-08-24T06:38:28;1.20;;;0.50;;
55069;SDS011;40967;52.070;8.596;2022-08-24T06:40:54;1.33;;;0.57;;
55069;SDS011;40967;52.070;8.596;2022-08-24T06:43:20;0.80;;;0.57;;
55069;SDS011;40967;52.070;8.596;2022-08-24T06:45:46;0.80;;;0.57;;
55069;SDS011;40967;52.070;8.596;2022-08-24T06:48:11;1.10;;;0.53;;
55069;SDS011;40967;52.070;8.596;2022-08-24T06:50:37;1.03;;;0.53;;
55069;SDS011;40967;52.070;8.596;2022-08-24T06:53:03;0.77;;;0.40;;
55069;SDS011;40967;52.070;8.596;2022-08-24T06:55:29;0.60;;;0.40;;
55069;SDS011;40967;52.070;8.596;2022-08-24T06:57:55;0.90;;;0.40;;
55069;SDS011;40967;52.070;8.596;2022-08-24T07:00:20;0.60;;;0.47;;
55069;SDS011;40967;52.070;8.596;2022-08-24T07:02:47;0.52;;;0.43;;
55069;SDS011;40967;52.070;8.596;2022-08-24T07:05:12;0.82;;;0.50;;
55069;SDS011;40967;52.070;8.596;2022-08-24T07:07:38;0.83;;;0.50;;
55069;SDS011;40967;52.070;8.596;2022-08-24T07:10:04;1.13;;;0.60;;
55069;SDS011;40967;52.070;8.596;2022-08-24T07:12:32;1.20;;;0.67;;
55069;SDS011;40967;52.070;8.596;2022-08-24T07:14:58;0.70;;;0.47;;
55069;SDS011;40967;52.070;8.596;2022-08-24T07:17:24;1.27;;;0.50;;
55069;SDS011;40967;52.070;8.596;2022-08-24T07:19:49;1.03;;;0.60;;
55069;SDS011;40967;52.070;8.596;2022-08-24T07:22:15;0.87;;;0.60;;
55069;SDS011;40967;52.070;8.596;2022-08-24T07:24:40;1.17;;;0.60;;
55069;SDS011;40967;52.070;8.596;2022-08-24T07:27:05;0.67;;;0.50;;
55069;SDS011;40967;52.070;8.596;2022-08-24T07:29:31;0.47;;;0.47;;
55069;SDS011;40967;52.070;8.596;2022-08-24T07:31:56;0.77;;;0.40;;
55069;SDS011;40967;52.070;8.596;2022-08-24T07:34:22;0.90;;;0.50;;
55069;SDS011;40967;52.070;8.596;2022-08-24T07:36:48;0.60;;;0.40;;
55069;SDS011;40967;52.070;8.596;2022-08-24T07:39:15;0.43;;;0.40;;
55069;SDS011;40967;52.070;8.596;2022-08-24T07:41:41;0.40;;;0.40;;
55069;SDS011;40967;52.070;8.596;2022-08-24T07:44:08;1.58;;;0.40;;
55069;SDS011;40967;52.070;8.596;2022-08-24T07:46:34;0.65;;;0.35;;
55069;SDS011;40967;52.070;8.596;2022-08-24T07:49:00;0.30;;;0.30;;
55069;SDS011;40967;52.070;8.596;2022-08-24T07:51:27;0.80;;;0.50;;
55069;SDS011;40967;52.070;8.596;2022-08-24T07:54:02;0.63;;;0.40;;
55069;SDS011;40967;52.070;8.596;2022-08-24T07:56:32;0.38;;;0.30;;
55069;SDS011;40967;52.070;8.596;2022-08-24T07:58:57;0.38;;;0.38;;
55069;SDS011;40967;52.070;8.596;2022-08-24T08:01:23;0.80;;;0.53;;
55069;SDS011;40967;52.070;8.596;2022-08-24T08:03:48;0.90;;;0.60;;
55069;SDS011;40967;52.070;8.596;2022-08-24T08:06:15;1.00;;;0.50;;
55069;SDS011;40967;52.070;8.596;2022-08-24T08:08:42;0.50;;;0.40;;
55069;SDS011;40967;52.070;8.596;2022-08-24T08:11:07;0.67;;;0.30;;
55069;SDS011;40967;52.070;8.596;2022-08-24T08:13:34;0.60;;;0.45;;
55069;SDS011;40967;52.070;8.596;2022-08-24T08:16:01;1.07;;;0.60;;
55069;SDS011;40967;52.070;8.596;2022-08-24T08:18:28;0.80;;;0.50;;
55069;SDS011;40967;52.070;8.596;2022-08-24T08:20:54;0.52;;;0.45;;
55069;SDS011;40967;52.070;8.596;2022-08-24T08:23:20;1.17;;;0.57;;
55069;SDS011;40967;52.070;8.596;2022-08-24T08:26:04;0.90;;;0.60;;
55069;SDS011;40967;52.070;8.596;2022-08-24T08:28:31;0.85;;;0.60;;
55069;SDS011;40967;52.070;8.596;2022-08-24T08:31:00;0.95;;;0.60;;
55069;SDS011;40967;52.070;8.596;2022-08-24T08:33:27;0.50;;;0.40;;
55069;SDS011;40967;52.070;8.596;2022-08-24T08:39:20;0.60;;;0.50;;
55069;SDS011;40967;52.070;8.596;2022-08-24T08:42:00;0.50;;;0.30;;
55069;SDS011;40967;52.070;8.596;2022-08-24T08:50:27;0.77;;;0.53;;
55069;SDS011;40967;52.070;8.596;2022-08-24T08:55:56;0.52;;;0.40;;
55069;SDS011;40967;52.070;8.596;2022-08-24T09:01:23;1.15;;;0.57;;
55069;SDS011;40967;52.070;8.596;2022-08-24T09:07:04;0.68;;;0.50;;
55069;SDS011;40967;52.070;8.596;2022-08-24T09:15:30;0.47;;;0.43;;
55069;SDS011;40967;52.070;8.596;2022-08-24T09:27:27;0.50;;;0.40;;
55069;SDS011;40967;52.070;8.596;2022-08-24T09:38:00;0.40;;;0.40;;
55069;SDS011;40967;52.070;8.596;2022-08-24T09:40:50;0.40;;;0.40;;
55069;SDS011;40967;52.070;8.596;2022-08-24T09:48:36;0.40;;;0.40;;
55069;SDS011;40967;52.070;8.596;2022-08-24T09:51:36;1.08;;;0.60;;
55069;SDS011;40967;52.070;8.596;2022-08-24T09:59:38;0.73;;;0.50;;
55069;SDS011;40967;52.070;8.596;2022-08-24T10:29:40;1.10;;;0.50;;
55069;SDS011;40967;52.070;8.596;2022-08-24T10:32:30;0.55;;;0.50;;
55069;SDS011;40967;52.070;8.596;2022-08-24T10:47:36;0.70;;;0.57;;
55069;SDS011;40967;52.070;8.596;2022-08-24T10:55:50;0.47;;;0.40;;
55069;SDS011;40967;52.070;8.596;2022-08-24T10:58:40;0.50;;;0.40;;
55069;SDS011;40967;52.070;8.596;2022-08-24T11:01:57;0.63;;;0.50;;
55069;SDS011;40967;52.070;8.596;2022-08-24T11:04:46;0.77;;;0.63;;
55069;SDS011;40967;52.070;8.596;2022-08-24T11:07:22;0.63;;;0.50;;
55069;SDS011;40967;52.070;8.596;2022-08-24T11:09:53;0.73;;;0.60;;
55069;SDS011;40967;52.070;8.596;2022-08-24T11:12:40;1.08;;;0.70;;
55069;SDS011;40967;52.070;8.596;2022-08-24T11:15:25;0.80;;;0.70;;
55069;SDS011;40967;52.070;8.596;2022-08-24T11:17:59;1.48;;;0.68;;
55069;SDS011;40967;52.070;8.596;2022-08-24T11:20:32;0.87;;;0.67;;
55069;SDS011;40967;52.070;8.596;2022-08-24T11:26:20;1.08;;;0.80;;
55069;SDS011;40967;52.070;8.596;2022-08-24T11:28:56;1.30;;;0.93;;
55069;SDS011;40967;52.070;8.596;2022-08-24T11:34:18;1.88;;;1.00;;
55069;SDS011;40967;52.070;8.596;2022-08-24T11:36:56;1.50;;;0.90;;
55069;SDS011;40967;52.070;8.596;2022-08-24T11:39:44;0.85;;;0.70;;
55069;SDS011;40967;52.070;8.596;2022-08-24T11:47:47;0.50;;;0.50;;
55069;SDS011;40967;52.070;8.596;2022-08-24T11:53:17;0.88;;;0.75;;
55069;SDS011;40967;52.070;8.596;2022-08-24T12:01:38;0.87;;;0.70;;
55069;SDS011;40967;52.070;8.596;2022-08-24T12:20:47;0.40;;;0.40;;
55069;SDS011;40967;52.070;8.596;2022-08-24T12:23:34;0.90;;;0.55;;
55069;SDS011;40967;52.070;8.596;2022-08-24T12:31:56;1.30;;;0.70;;
55069;SDS011;40967;52.070;8.596;2022-08-24T12:37:14;1.25;;;0.80;;
55069;SDS011;40967;52.070;8.596;2022-08-24T12:45:14;0.85;;;0.50;;
55069;SDS011;40967;52.070;8.596;2022-08-24T12:47:48;0.60;;;0.50;;
55069;SDS011;40967;52.070;8.596;2022-08-24T13:01:07;0.68;;;0.60;;
55069;SDS011;40967;52.070;8.596;2022-08-24T13:03:40;0.85;;;0.60;;
55069;SDS011;40967;52.070;8.596;2022-08-24T13:06:15;1.03;;;0.63;;
55069;SDS011;40967;52.070;8.596;2022-08-24T13:08:53;0.85;;;0.70;;
55069;SDS011;40967;52.070;8.596;2022-08-24T13:11:32;0.80;;;0.60;;
55069;SDS011;40967;52.070;8.596;2022-08-24T13:17:13;0.88;;;0.73;;
55069;SDS011;40967;52.070;8.596;2022-08-24T13:21:57;0.82;;;0.70;;
55069;SDS011;40967;52.070;8.596;2022-08-24T13:32:31;0.95;;;0.70;;
55069;SDS011;40967;52.070;8.596;2022-08-24T13:40:49;0.70;;;0.70;;
55069;SDS011;40967;52.070;8.596;2022-08-24T13:43:27;1.20;;;0.70;;
55069;SDS011;40967;52.070;8.596;2022-08-24T13:52:05;0.45;;;0.45;;
55069;SDS011;40967;52.070;8.596;2022-08-24T13:57:30;0.40;;;0.40;;
55069;SDS011;40967;52.070;8.596;2022-08-24T14:08:42;0.70;;;0.60;;
55069;SDS011;40967;52.070;8.596;2022-08-24T14:25:40;1.00;;;0.60;;
55069;SDS011;40967;52.070;8.596;2022-08-24T14:34:30;0.95;;;0.68;;
55069;SDS011;40967;52.070;8.596;2022-08-24T14:39:48;0.80;;;0.60;;
55069;SDS011;40967;52.070;8.596;2022-08-24T14:42:17;1.00;;;0.70;;
55069;SDS011;40967;52.070;8.596;2022-08-24T15:03:58;0.50;;;0.50;;
55069;SDS011;40967;52.070;8.596;2022-08-24T15:09:17;1.13;;;0.65;;
55069;SDS011;40967;52.070;8.596;2022-08-24T15:11:45;1.23;;;0.70;;
55069;SDS011;40967;52.070;8.596;2022-08-24T15:17:03;0.80;;;0.60;;
55069;SDS011;40967;52.070;8.596;2022-08-24T15:22:45;0.82;;;0.50;;
55069;SDS011;40967;52.070;8.596;2022-08-24T15:30:38;1.10;;;0.60;;
55069;SDS011;40967;52.070;8.596;2022-08-24T15:38:33;0.30;;;0.30;;
55069;SDS011;40967;52.070;8.596;2022-08-24T15:41:04;0.57;;;0.38;;
55069;SDS011;40967;52.070;8.596;2022-08-24T15:43:44;0.40;;;0.40;;
55069;SDS011;40967;52.070;8.596;2022-08-24T15:46:17;0.35;;;0.35;;
55069;SDS011;40967;52.070;8.596;2022-08-24T15:48:45;0.30;;;0.30;;
55069;SDS011;40967;52.070;8.596;2022-08-24T15:51:38;0.30;;;0.30;;
55069;SDS011;40967;52.070;8.596;2022-08-24T15:54:26;0.70;;;0.60;;
55069;SDS011;40967;52.070;8.596;2022-08-24T15:57:03;0.60;;;0.40;;
55069;SDS011;40967;52.070;8.596;2022-08-24T16:04:50;0.65;;;0.50;;
55069;SDS011;40967;52.070;8.596;2022-08-24T16:07:28;0.60;;;0.45;;
55069;SDS011;40967;52.070;8.596;2022-08-24T16:10:03;0.60;;;0.40;;
55069;SDS011;40967;52.070;8.596;2022-08-24T16:12:31;0.30;;;0.30;;
55069;SDS011;40967;52.070;8.596;2022-08-24T16:15:13;0.25;;;0.25;;
55069;SDS011;40967;52.070;8.596;2022-08-24T16:17:45;0.20;;;0.20;;
55069;SDS011;40967;52.070;8.596;2022-08-24T16:22:54;0.30;;;0.30;;
55069;SDS011;40967;52.070;8.596;2022-08-24T16:30:24;0.20;;;0.20;;
55069;SDS011;40967;52.070;8.596;2022-08-24T16:32:59;0.20;;;0.20;;
55069;SDS011;40967;52.070;8.596;2022-08-24T16:35:24;0.30;;;0.30;;
55069;SDS011;40967;52.070;8.596;2022-08-24T16:37:50;0.70;;;0.40;;
55069;SDS011;40967;52.070;8.596;2022-08-24T16:40:17;0.60;;;0.45;;
55069;SDS011;40967;52.070;8.596;2022-08-24T16:42:43;1.05;;;0.60;;
55069;SDS011;40967;52.070;8.596;2022-08-24T16:45:09;0.68;;;0.60;;
55069;SDS011;40967;52.070;8.596;2022-08-24T16:47:38;0.80;;;0.43;;
55069;SDS011;40967;52.070;8.596;2022-08-24T16:50:05;0.63;;;0.53;;
55069;SDS011;40967;52.070;8.596;2022-08-24T16:52:30;0.50;;;0.50;;
55069;SDS011;40967;52.070;8.596;2022-08-24T16:54:56;0.80;;;0.70;;
55069;SDS011;40967;52.070;8.596;2022-08-24T16:57:22;0.70;;;0.60;;
55069;SDS011;40967;52.070;8.596;2022-08-24T16:59:51;0.90;;;0.68;;
55069;SDS011;40967;52.070;8.596;2022-08-24T17:02:17;0.85;;;0.60;;
55069;SDS011;40967;52.070;8.596;2022-08-24T17:04:44;0.68;;;0.60;;
55069;SDS011;40967;52.070;8.596;2022-08-24T17:07:11;0.80;;;0.50;;
55069;SDS011;40967;52.070;8.596;2022-08-24T17:09:40;1.00;;;0.70;;
55069;SDS011;40967;52.070;8.596;2022-08-24T17:12:07;0.80;;;0.60;;
55069;SDS011;40967;52.070;8.596;2022-08-24T17:14:34;0.63;;;0.60;;
55069;SDS011;40967;52.070;8.596;2022-08-24T17:17:02;0.63;;;0.50;;
55069;SDS011;40967;52.070;8.596;2022-08-24T17:19:28;0.70;;;0.60;;
55069;SDS011;40967;52.070;8.596;2022-08-24T17:21:54;0.63;;;0.60;;
55069;SDS011;40967;52.070;8.596;2022-08-24T17:24:20;0.95;;;0.70;;
55069;SDS011;40967;52.070;8.596;2022-08-24T17:26:47;1.80;;;0.80;;
55069;SDS011;40967;52.070;8.596;2022-08-24T17:29:15;1.15;;;0.80;;
55069;SDS011;40967;52.070;8.596;2022-08-24T17:31:43;0.95;;;0.70;;
55069;SDS011;40967;52.070;8.596;2022-08-24T17:34:10;0.68;;;0.50;;
55069;SDS011;40967;52.070;8.596;2022-08-24T17:36:37;0.80;;;0.57;;
55069;SDS011;40967;52.070;8.596;2022-08-24T17:39:03;0.60;;;0.50;;
55069;SDS011;40967;52.070;8.596;2022-08-24T17:41:31;0.77;;;0.57;;
55069;SDS011;40967;52.070;8.596;2022-08-24T17:43:57;0.77;;;0.50;;
55069;SDS011;40967;52.070;8.596;2022-08-24T17:46:25;1.27;;;0.80;;
55069;SDS011;40967;52.070;8.596;2022-08-24T17:48:51;1.20;;;0.90;;
55069;SDS011;40967;52.070;8.596;2022-08-24T17:51:17;1.25;;;0.77;;
55069;SDS011;40967;52.070;8.596;2022-08-24T17:53:43;1.33;;;0.73;;
55069;SDS011;40967;52.070;8.596;2022-08-24T17:56:09;1.25;;;0.80;;
55069;SDS011;40967;52.070;8.596;2022-08-24T17:58:37;1.30;;;0.80;;
55069;SDS011;40967;52.070;8.596;2022-08-24T18:01:22;0.90;;;0.60;;
55069;SDS011;40967;52.070;8.596;2022-08-24T18:03:48;0.70;;;0.50;;
55069;SDS011;40967;52.070;8.596;2022-08-24T18:06:14;0.52;;;0.40;;
55069;SDS011;40967;52.070;8.596;2022-08-24T18:08:40;0.60;;;0.45;;
55069;SDS011;40967;52.070;8.596;2022-08-24T18:11:05;0.85;;;0.50;;
55069;SDS011;40967;52.070;8.596;2022-08-24T18:13:31;1.00;;;0.50;;
55069;SDS011;40967;52.070;8.596;2022-08-24T18:15:56;1.30;;;0.70;;
55069;SDS011;40967;52.070;8.596;2022-08-24T18:18:21;1.07;;;0.70;;
55069;SDS011;40967;52.070;8.596;2022-08-24T18:20:47;1.17;;;0.88;;
55069;SDS011;40967;52.070;8.596;2022-08-24T18:23:12;1.30;;;0.70;;
55069;SDS011;40967;52.070;8.596;2022-08-24T18:25:41;1.35;;;0.77;;
55069;SDS011;40967;52.070;8.596;2022-08-24T18:28:11;1.60;;;0.80;;
55069;SDS011;40967;52.070;8.596;2022-08-24T18:30:37;1.40;;;0.68;;
55069;SDS011;40967;52.070;8.596;2022-08-24T18:33:05;1.35;;;0.80;;
55069;SDS011;40967;52.070;8.596;2022-08-24T18:35:31;0.85;;;0.60;;
55069;SDS011;40967;52.070;8.596;2022-08-24T18:37:58;0.77;;;0.55;;
55069;SDS011;40967;52.070;8.596;2022-08-24T18:40:23;1.10;;;0.60;;
55069;SDS011;40967;52.070;8.596;2022-08-24T18:42:50;0.80;;;0.60;;
55069;SDS011;40967;52.070;8.596;2022-08-24T18:45:16;1.50;;;0.63;;
55069;SDS011;40967;52.070;8.596;2022-08-24T18:47:42;0.93;;;0.60;;
55069;SDS011;40967;52.070;8.596;2022-08-24T18:50:07;0.47;;;0.40;;
55069;SDS011;40967;52.070;8.596;2022-08-24T18:52:34;0.60;;;0.50;;
55069;SDS011;40967;52.070;8.596;2022-08-24T18:55:01;0.68;;;0.43;;
55069;SDS011;40967;52.070;8.596;2022-08-24T18:57:27;0.68;;;0.43;;
55069;SDS011;40967;52.070;8.596;2022-08-24T18:59:52;0.68;;;0.45;;
55069;SDS011;40967;52.070;8.596;2022-08-24T19:02:19;0.80;;;0.50;;
55069;SDS011;40967;52.070;8.596;2022-08-24T19:05:01;0.77;;;0.50;;
55069;SDS011;40967;52.070;8.596;2022-08-24T19:07:53;0.65;;;0.50;;
55069;SDS011;40967;52.070;8.596;2022-08-24T19:10:22;0.70;;;0.50;;
55069;SDS011;40967;52.070;8.596;2022-08-24T19:12:51;0.47;;;0.38;;
55069;SDS011;40967;52.070;8.596;2022-08-24T19:15:20;0.57;;;0.40;;
55069;SDS011;40967;52.070;8.596;2022-08-24T19:17:45;0.40;;;0.40;;
55069;SDS011;40967;52.070;8.596;2022-08-24T19:20:11;0.87;;;0.40;;
55069;SDS011;40967;52.070;8.596;2022-08-24T19:22:38;0.57;;;0.40;;
55069;SDS011;40967;52.070;8.596;2022-08-24T19:25:05;0.30;;;0.30;;
55069;SDS011;40967;52.070;8.596;2022-08-24T19:27:31;0.60;;;0.40;;
55069;SDS011;40967;52.070;8.596;2022-08-24T19:29:57;0.40;;;0.30;;